sensor_id;sensor_type;location;lat;lon;timestamp;P1;durP1;ratioP1;P2;durP2;ratioP2
57389;SDS011;43217;52.694;6.214;2023-06-01T00:02:02;9.60;;;5.72;;
57389;SDS011;43217;52.694;6.214;2023-06-01T00:04:28;11.02;;;6.35;;
57389;SDS011;43217;52.694;6.214;2023-06-01T00:06:54;9.73;;;6.05;;
57389;SDS011;43217;52.694;6.214;2023-06-01T00:09:19;9.35;;;6.78;;
57389;SDS011;43217;52.694;6.214;2023-06-01T00:11:45;10.90;;;6.18;;
57389;SDS011;43217;52.694;6.214;2023-06-01T00:14:11;8.73;;;6.05;;
57389;SDS011;43217;52.694;6.214;2023-06-01T00:16:36;12.50;;;6.47;;
57389;SDS011;43217;52.694;6.214;2023-06-01T00:19:02;9.18;;;6.68;;
57389;SDS011;43217;52.694;6.214;2023-06-01T00:21:29;10.40;;;6.30;;
57389;SDS011;43217;52.694;6.214;2023-06-01T00:23:57;10.27;;;6.35;;
57389;SDS011;43217;52.694;6.214;2023-06-01T00:26:23;10.30;;;6.63;;
57389;SDS011;43217;52.694;6.214;2023-06-01T00:28:50;9.03;;;5.77;;
57389;SDS011;43217;52.694;6.214;2023-06-01T00:31:16;9.90;;;6.50;;
57389;SDS011;43217;52.694;6.214;2023-06-01T00:33:42;10.35;;;6.75;;
57389;SDS011;43217;52.694;6.214;2023-06-01T00:36:07;10.68;;;6.22;;
57389;SDS011;43217;52.694;6.214;2023-06-01T00:38:33;10.80;;;6.25;;
57389;SDS011;43217;52.694;6.214;2023-06-01T00:40:59;10.82;;;6.30;;
57389;SDS011;43217;52.694;6.214;2023-06-01T00:43:24;14.10;;;6.90;;
57389;SDS011;43217;52.694;6.214;2023-06-01T00:45:50;13.57;;;7.00;;
57389;SDS011;43217;52.694;6.214;2023-06-01T00:48:15;10.30;;;6.72;;
57389;SDS011;43217;52.694;6.214;2023-06-01T00:50:42;9.23;;;6.50;;
57389;SDS011;43217;52.694;6.214;2023-06-01T00:53:09;11.65;;;6.80;;
57389;SDS011;43217;52.694;6.214;2023-06-01T00:55:40;11.77;;;6.60;;
57389;SDS011;43217;52.694;6.214;2023-06-01T00:58:06;9.70;;;7.18;;
57389;SDS011;43217;52.694;6.214;2023-06-01T01:00:33;11.77;;;6.68;;
57389;SDS011;43217;52.694;6.214;2023-06-01T01:02:59;11.35;;;6.95;;
57389;SDS011;43217;52.694;6.214;2023-06-01T01:05:34;13.48;;;6.88;;
57389;SDS011;43217;52.694;6.214;2023-06-01T01:08:03;9.27;;;6.75;;
57389;SDS011;43217;52.694;6.214;2023-06-01T01:13:19;11.75;;;6.60;;
57389;SDS011;43217;52.694;6.214;2023-06-01T01:16:12;14.00;;;6.50;;
57389;SDS011;43217;52.694;6.214;2023-06-01T01:21:10;9.73;;;6.88;;
57389;SDS011;43217;52.694;6.214;2023-06-01T01:24:05;10.48;;;7.05;;
57389;SDS011;43217;52.694;6.214;2023-06-01T01:26:42;13.07;;;6.95;;
57389;SDS011;43217;52.694;6.214;2023-06-01T01:29:31;10.18;;;6.35;;
57389;SDS011;43217;52.694;6.214;2023-06-01T01:31:59;9.75;;;7.07;;
57389;SDS011;43217;52.694;6.214;2023-06-01T01:34:28;11.38;;;6.90;;
57389;SDS011;43217;52.694;6.214;2023-06-01T01:36:55;9.93;;;6.95;;
57389;SDS011;43217;52.694;6.214;2023-06-01T01:39:21;11.75;;;6.80;;
57389;SDS011;43217;52.694;6.214;2023-06-01T01:41:46;9.52;;;7.10;;
57389;SDS011;43217;52.694;6.214;2023-06-01T01:44:13;11.75;;;7.25;;
57389;SDS011;43217;52.694;6.214;2023-06-01T01:46:52;10.75;;;7.10;;
57389;SDS011;43217;52.694;6.214;2023-06-01T01:49:20;12.48;;;6.95;;
57389;SDS011;43217;52.694;6.214;2023-06-01T01:51:57;10.27;;;7.45;;
57389;SDS011;43217;52.694;6.214;2023-06-01T01:54:43;10.43;;;7.43;;
57389;SDS011;43217;52.694;6.214;2023-06-01T01:57:13;11.63;;;7.70;;
57389;SDS011;43217;52.694;6.214;2023-06-01T01:59:40;9.35;;;7.60;;
57389;SDS011;43217;52.694;6.214;2023-06-01T02:02:07;12.25;;;7.13;;
57389;SDS011;43217;52.694;6.214;2023-06-01T02:04:38;10.48;;;6.90;;
57389;SDS011;43217;52.694;6.214;2023-06-01T02:07:08;12.65;;;7.90;;
57389;SDS011;43217;52.694;6.214;2023-06-01T02:09:34;12.15;;;7.65;;
57389;SDS011;43217;52.694;6.214;2023-06-01T02:12:00;13.90;;;7.88;;
57389;SDS011;43217;52.694;6.214;2023-06-01T02:14:27;11.13;;;7.35;;
57389;SDS011;43217;52.694;6.214;2023-06-01T02:16:53;10.40;;;7.30;;
57389;SDS011;43217;52.694;6.214;2023-06-01T02:19:19;11.88;;;7.53;;
57389;SDS011;43217;52.694;6.214;2023-06-01T02:21:45;10.30;;;7.28;;
57389;SDS011;43217;52.694;6.214;2023-06-01T02:24:11;11.40;;;7.22;;
57389;SDS011;43217;52.694;6.214;2023-06-01T02:26:37;8.98;;;6.90;;
57389;SDS011;43217;52.694;6.214;2023-06-01T02:29:03;12.55;;;7.80;;
57389;SDS011;43217;52.694;6.214;2023-06-01T02:31:32;11.57;;;7.20;;
57389;SDS011;43217;52.694;6.214;2023-06-01T02:33:58;13.23;;;7.85;;
57389;SDS011;43217;52.694;6.214;2023-06-01T02:36:25;14.00;;;8.13;;
57389;SDS011;43217;52.694;6.214;2023-06-01T02:38:54;13.05;;;7.38;;
57389;SDS011;43217;52.694;6.214;2023-06-01T02:41:20;10.65;;;7.35;;
57389;SDS011;43217;52.694;6.214;2023-06-01T02:43:47;11.30;;;6.88;;
57389;SDS011;43217;52.694;6.214;2023-06-01T02:46:12;10.77;;;7.40;;
57389;SDS011;43217;52.694;6.214;2023-06-01T02:48:38;11.35;;;6.55;;
57389;SDS011;43217;52.694;6.214;2023-06-01T02:51:04;13.43;;;7.28;;
57389;SDS011;43217;52.694;6.214;2023-06-01T02:53:30;11.75;;;6.75;;
57389;SDS011;43217;52.694;6.214;2023-06-01T02:55:56;10.68;;;6.70;;
57389;SDS011;43217;52.694;6.214;2023-06-01T02:58:22;14.15;;;7.05;;
57389;SDS011;43217;52.694;6.214;2023-06-01T03:00:47;10.43;;;6.40;;
57389;SDS011;43217;52.694;6.214;2023-06-01T03:03:13;12.32;;;7.38;;
57389;SDS011;43217;52.694;6.214;2023-06-01T03:05:39;12.57;;;7.15;;
57389;SDS011;43217;52.694;6.214;2023-06-01T03:08:08;11.73;;;7.15;;
57389;SDS011;43217;52.694;6.214;2023-06-01T03:10:33;10.77;;;7.13;;
57389;SDS011;43217;52.694;6.214;2023-06-01T03:12:59;9.13;;;7.07;;
57389;SDS011;43217;52.694;6.214;2023-06-01T03:15:25;12.80;;;7.13;;
57389;SDS011;43217;52.694;6.214;2023-06-01T03:17:52;11.18;;;6.57;;
57389;SDS011;43217;52.694;6.214;2023-06-01T03:20:18;8.95;;;6.90;;
57389;SDS011;43217;52.694;6.214;2023-06-01T03:22:44;12.20;;;6.65;;
57389;SDS011;43217;52.694;6.214;2023-06-01T03:25:10;15.95;;;7.22;;
57389;SDS011;43217;52.694;6.214;2023-06-01T03:27:40;9.25;;;6.50;;
57389;SDS011;43217;52.694;6.214;2023-06-01T03:30:06;11.38;;;7.15;;
57389;SDS011;43217;52.694;6.214;2023-06-01T03:32:39;11.73;;;7.10;;
57389;SDS011;43217;52.694;6.214;2023-06-01T03:35:06;11.25;;;6.72;;
57389;SDS011;43217;52.694;6.214;2023-06-01T03:37:33;12.07;;;7.07;;
57389;SDS011;43217;52.694;6.214;2023-06-01T03:40:00;10.70;;;6.85;;
57389;SDS011;43217;52.694;6.214;2023-06-01T03:42:26;12.93;;;6.88;;
57389;SDS011;43217;52.694;6.214;2023-06-01T03:44:52;10.25;;;6.35;;
57389;SDS011;43217;52.694;6.214;2023-06-01T03:47:17;12.10;;;6.90;;
57389;SDS011;43217;52.694;6.214;2023-06-01T03:49:43;11.25;;;6.70;;
57389;SDS011;43217;52.694;6.214;2023-06-01T03:52:09;9.02;;;6.93;;
57389;SDS011;43217;52.694;6.214;2023-06-01T03:54:34;8.25;;;6.25;;
57389;SDS011;43217;52.694;6.214;2023-06-01T03:57:00;11.32;;;6.57;;
57389;SDS011;43217;52.694;6.214;2023-06-01T03:59:26;10.85;;;6.40;;
57389;SDS011;43217;52.694;6.214;2023-06-01T04:01:53;9.82;;;6.38;;
57389;SDS011;43217;52.694;6.214;2023-06-01T04:04:19;13.50;;;6.47;;
57389;SDS011;43217;52.694;6.214;2023-06-01T04:06:50;9.75;;;5.88;;
57389;SDS011;43217;52.694;6.214;2023-06-01T04:09:16;10.75;;;6.13;;
57389;SDS011;43217;52.694;6.214;2023-06-01T04:11:43;9.17;;;5.70;;
57389;SDS011;43217;52.694;6.214;2023-06-01T04:14:09;9.88;;;6.00;;
57389;SDS011;43217;52.694;6.214;2023-06-01T04:16:35;7.18;;;5.47;;
57389;SDS011;43217;52.694;6.214;2023-06-01T04:19:00;9.30;;;5.57;;
57389;SDS011;43217;52.694;6.214;2023-06-01T04:21:26;10.30;;;5.38;;
57389;SDS011;43217;52.694;6.214;2023-06-01T04:23:54;8.88;;;5.63;;
57389;SDS011;43217;52.694;6.214;2023-06-01T04:26:20;10.70;;;6.13;;
57389;SDS011;43217;52.694;6.214;2023-06-01T04:28:46;8.85;;;5.20;;
57389;SDS011;43217;52.694;6.214;2023-06-01T04:31:14;9.07;;;5.20;;
57389;SDS011;43217;52.694;6.214;2023-06-01T04:33:46;8.13;;;5.03;;
57389;SDS011;43217;52.694;6.214;2023-06-01T04:36:21;9.30;;;4.85;;
57389;SDS011;43217;52.694;6.214;2023-06-01T04:38:50;7.25;;;4.78;;
57389;SDS011;43217;52.694;6.214;2023-06-01T04:41:17;12.75;;;5.53;;
57389;SDS011;43217;52.694;6.214;2023-06-01T04:43:46;7.63;;;5.13;;
57389;SDS011;43217;52.694;6.214;2023-06-01T04:46:17;7.45;;;5.75;;
57389;SDS011;43217;52.694;6.214;2023-06-01T04:48:43;7.28;;;5.05;;
57389;SDS011;43217;52.694;6.214;2023-06-01T04:51:10;7.47;;;4.88;;
57389;SDS011;43217;52.694;6.214;2023-06-01T04:53:35;7.68;;;5.30;;
57389;SDS011;43217;52.694;6.214;2023-06-01T04:56:01;7.97;;;5.00;;
57389;SDS011;43217;52.694;6.214;2023-06-01T04:58:27;8.82;;;5.10;;
57389;SDS011;43217;52.694;6.214;2023-06-01T05:00:52;12.43;;;5.38;;
57389;SDS011;43217;52.694;6.214;2023-06-01T05:03:19;8.40;;;5.15;;
57389;SDS011;43217;52.694;6.214;2023-06-01T05:05:45;9.70;;;5.30;;
57389;SDS011;43217;52.694;6.214;2023-06-01T05:08:11;6.25;;;4.68;;
57389;SDS011;43217;52.694;6.214;2023-06-01T05:10:37;7.63;;;4.93;;
57389;SDS011;43217;52.694;6.214;2023-06-01T05:13:04;7.07;;;5.32;;
57389;SDS011;43217;52.694;6.214;2023-06-01T05:15:30;7.13;;;4.82;;
57389;SDS011;43217;52.694;6.214;2023-06-01T05:17:56;6.25;;;4.97;;
57389;SDS011;43217;52.694;6.214;2023-06-01T05:20:21;9.70;;;5.78;;
57389;SDS011;43217;52.694;6.214;2023-06-01T05:22:47;8.65;;;5.07;;
57389;SDS011;43217;52.694;6.214;2023-06-01T05:25:13;6.55;;;4.60;;
57389;SDS011;43217;52.694;6.214;2023-06-01T05:27:39;7.03;;;4.40;;
57389;SDS011;43217;52.694;6.214;2023-06-01T05:30:05;8.30;;;4.97;;
57389;SDS011;43217;52.694;6.214;2023-06-01T05:32:31;8.23;;;4.50;;
57389;SDS011;43217;52.694;6.214;2023-06-01T05:34:57;7.45;;;4.80;;
57389;SDS011;43217;52.694;6.214;2023-06-01T05:37:22;12.60;;;4.97;;
57389;SDS011;43217;52.694;6.214;2023-06-01T05:39:48;6.35;;;4.93;;
57389;SDS011;43217;52.694;6.214;2023-06-01T05:42:14;8.63;;;4.93;;
57389;SDS011;43217;52.694;6.214;2023-06-01T05:44:39;6.20;;;4.65;;
57389;SDS011;43217;52.694;6.214;2023-06-01T05:47:05;5.70;;;4.47;;
57389;SDS011;43217;52.694;6.214;2023-06-01T05:49:31;7.97;;;4.80;;
57389;SDS011;43217;52.694;6.214;2023-06-01T05:51:56;9.65;;;5.05;;
57389;SDS011;43217;52.694;6.214;2023-06-01T05:54:23;9.82;;;4.95;;
57389;SDS011;43217;52.694;6.214;2023-06-01T05:56:49;8.30;;;5.38;;
57389;SDS011;43217;52.694;6.214;2023-06-01T05:59:14;8.07;;;4.60;;
57389;SDS011;43217;52.694;6.214;2023-06-01T06:01:42;6.78;;;4.53;;
57389;SDS011;43217;52.694;6.214;2023-06-01T06:04:09;7.72;;;4.63;;
57389;SDS011;43217;52.694;6.214;2023-06-01T06:06:35;6.95;;;4.40;;
57389;SDS011;43217;52.694;6.214;2023-06-01T06:09:01;9.45;;;5.30;;
57389;SDS011;43217;52.694;6.214;2023-06-01T06:11:29;7.68;;;4.80;;
57389;SDS011;43217;52.694;6.214;2023-06-01T06:13:55;8.63;;;5.30;;
57389;SDS011;43217;52.694;6.214;2023-06-01T06:16:21;8.40;;;4.70;;
57389;SDS011;43217;52.694;6.214;2023-06-01T06:18:47;7.18;;;4.20;;
57389;SDS011;43217;52.694;6.214;2023-06-01T06:21:12;8.02;;;4.50;;
57389;SDS011;43217;52.694;6.214;2023-06-01T06:23:38;8.57;;;4.97;;
57389;SDS011;43217;52.694;6.214;2023-06-01T06:26:05;9.98;;;5.25;;
57389;SDS011;43217;52.694;6.214;2023-06-01T06:28:31;7.00;;;5.03;;
57389;SDS011;43217;52.694;6.214;2023-06-01T06:30:57;10.40;;;5.43;;
57389;SDS011;43217;52.694;6.214;2023-06-01T06:33:23;7.05;;;4.80;;
57389;SDS011;43217;52.694;6.214;2023-06-01T06:35:48;8.95;;;5.20;;
57389;SDS011;43217;52.694;6.214;2023-06-01T06:38:14;8.23;;;4.85;;
57389;SDS011;43217;52.694;6.214;2023-06-01T06:40:41;7.60;;;4.85;;
57389;SDS011;43217;52.694;6.214;2023-06-01T06:43:07;8.88;;;4.90;;
57389;SDS011;43217;52.694;6.214;2023-06-01T06:45:33;8.20;;;4.72;;
57389;SDS011;43217;52.694;6.214;2023-06-01T06:47:58;7.35;;;4.97;;
57389;SDS011;43217;52.694;6.214;2023-06-01T06:50:24;6.43;;;4.45;;
57389;SDS011;43217;52.694;6.214;2023-06-01T06:52:49;6.25;;;4.78;;
57389;SDS011;43217;52.694;6.214;2023-06-01T06:55:15;7.13;;;4.38;;
57389;SDS011;43217;52.694;6.214;2023-06-01T06:57:40;8.52;;;4.72;;
57389;SDS011;43217;52.694;6.214;2023-06-01T07:00:07;5.72;;;4.45;;
57389;SDS011;43217;52.694;6.214;2023-06-01T07:02:33;10.90;;;4.65;;
57389;SDS011;43217;52.694;6.214;2023-06-01T07:04:59;7.15;;;4.53;;
57389;SDS011;43217;52.694;6.214;2023-06-01T07:07:25;8.20;;;4.25;;
57389;SDS011;43217;52.694;6.214;2023-06-01T07:09:51;6.55;;;4.20;;
57389;SDS011;43217;52.694;6.214;2023-06-01T07:12:18;6.23;;;4.67;;
57389;SDS011;43217;52.694;6.214;2023-06-01T07:14:43;7.43;;;4.00;;
57389;SDS011;43217;52.694;6.214;2023-06-01T07:17:09;5.75;;;4.00;;
57389;SDS011;43217;52.694;6.214;2023-06-01T07:19:35;9.30;;;4.53;;
57389;SDS011;43217;52.694;6.214;2023-06-01T07:22:00;8.15;;;4.38;;
57389;SDS011;43217;52.694;6.214;2023-06-01T07:24:26;6.50;;;4.80;;
57389;SDS011;43217;52.694;6.214;2023-06-01T07:26:52;9.63;;;4.82;;
57389;SDS011;43217;52.694;6.214;2023-06-01T07:29:19;10.00;;;4.70;;
57389;SDS011;43217;52.694;6.214;2023-06-01T07:31:46;8.43;;;5.38;;
57389;SDS011;43217;52.694;6.214;2023-06-01T07:34:11;7.60;;;4.82;;
57389;SDS011;43217;52.694;6.214;2023-06-01T07:36:37;9.95;;;4.82;;
57389;SDS011;43217;52.694;6.214;2023-06-01T07:39:03;8.50;;;5.03;;
57389;SDS011;43217;52.694;6.214;2023-06-01T07:41:33;8.60;;;4.60;;
57389;SDS011;43217;52.694;6.214;2023-06-01T07:43:59;8.98;;;5.35;;
57389;SDS011;43217;52.694;6.214;2023-06-01T07:46:25;8.55;;;4.63;;
57389;SDS011;43217;52.694;6.214;2023-06-01T07:48:50;8.57;;;4.30;;
57389;SDS011;43217;52.694;6.214;2023-06-01T07:51:16;10.10;;;4.72;;
57389;SDS011;43217;52.694;6.214;2023-06-01T07:53:42;8.20;;;5.18;;
57389;SDS011;43217;52.694;6.214;2023-06-01T07:56:08;8.82;;;4.70;;
57389;SDS011;43217;52.694;6.214;2023-06-01T07:58:34;7.68;;;5.38;;
57389;SDS011;43217;52.694;6.214;2023-06-01T08:01:00;8.67;;;5.23;;
57389;SDS011;43217;52.694;6.214;2023-06-01T08:03:26;6.82;;;4.32;;
57389;SDS011;43217;52.694;6.214;2023-06-01T08:05:52;7.05;;;4.43;;
57389;SDS011;43217;52.694;6.214;2023-06-01T08:08:24;8.05;;;4.60;;
57389;SDS011;43217;52.694;6.214;2023-06-01T08:10:50;9.68;;;4.78;;
57389;SDS011;43217;52.694;6.214;2023-06-01T08:13:17;7.95;;;4.45;;
57389;SDS011;43217;52.694;6.214;2023-06-01T08:15:43;6.23;;;4.23;;
57389;SDS011;43217;52.694;6.214;2023-06-01T08:18:12;8.02;;;4.50;;
57389;SDS011;43217;52.694;6.214;2023-06-01T08:20:39;8.45;;;4.43;;
57389;SDS011;43217;52.694;6.214;2023-06-01T08:23:04;8.50;;;4.55;;
57389;SDS011;43217;52.694;6.214;2023-06-01T08:25:30;7.63;;;4.57;;
57389;SDS011;43217;52.694;6.214;2023-06-01T08:27:56;9.50;;;4.90;;
57389;SDS011;43217;52.694;6.214;2023-06-01T08:30:24;6.75;;;4.10;;
57389;SDS011;43217;52.694;6.214;2023-06-01T08:32:50;11.07;;;5.00;;
57389;SDS011;43217;52.694;6.214;2023-06-01T08:35:16;8.48;;;4.55;;
57389;SDS011;43217;52.694;6.214;2023-06-01T08:37:43;8.27;;;4.15;;
57389;SDS011;43217;52.694;6.214;2023-06-01T08:40:10;6.82;;;4.40;;
57389;SDS011;43217;52.694;6.214;2023-06-01T08:42:39;8.65;;;4.30;;
57389;SDS011;43217;52.694;6.214;2023-06-01T08:45:10;5.18;;;3.85;;
57389;SDS011;43217;52.694;6.214;2023-06-01T08:47:38;5.45;;;4.28;;
57389;SDS011;43217;52.694;6.214;2023-06-01T08:50:05;8.60;;;4.55;;
57389;SDS011;43217;52.694;6.214;2023-06-01T08:52:34;6.88;;;4.25;;
57389;SDS011;43217;52.694;6.214;2023-06-01T08:55:01;7.18;;;4.40;;
57389;SDS011;43217;52.694;6.214;2023-06-01T08:57:28;7.28;;;4.20;;
57389;SDS011;43217;52.694;6.214;2023-06-01T08:59:54;5.93;;;3.95;;
57389;SDS011;43217;52.694;6.214;2023-06-01T09:02:21;7.40;;;3.85;;
57389;SDS011;43217;52.694;6.214;2023-06-01T09:04:47;7.18;;;4.18;;
57389;SDS011;43217;52.694;6.214;2023-06-01T09:07:13;6.82;;;4.13;;
57389;SDS011;43217;52.694;6.214;2023-06-01T09:09:39;8.85;;;4.40;;
57389;SDS011;43217;52.694;6.214;2023-06-01T09:14:48;6.85;;;4.10;;
57389;SDS011;43217;52.694;6.214;2023-06-01T09:17:15;6.35;;;3.88;;
57389;SDS011;43217;52.694;6.214;2023-06-01T09:19:47;7.13;;;4.00;;
57389;SDS011;43217;52.694;6.214;2023-06-01T09:22:14;7.18;;;3.88;;
57389;SDS011;43217;52.694;6.214;2023-06-01T09:24:40;5.88;;;3.80;;
57389;SDS011;43217;52.694;6.214;2023-06-01T09:27:19;9.35;;;4.35;;
57389;SDS011;43217;52.694;6.214;2023-06-01T09:29:52;5.93;;;3.95;;
57389;SDS011;43217;52.694;6.214;2023-06-01T09:32:26;7.18;;;3.92;;
57389;SDS011;43217;52.694;6.214;2023-06-01T09:34:52;6.38;;;3.97;;
57389;SDS011;43217;52.694;6.214;2023-06-01T09:37:19;5.80;;;2.70;;
57389;SDS011;43217;52.694;6.214;2023-06-01T09:39:45;3.75;;;2.20;;
57389;SDS011;43217;52.694;6.214;2023-06-01T09:42:11;2.92;;;2.10;;
57389;SDS011;43217;52.694;6.214;2023-06-01T09:44:37;1.73;;;1.63;;
57389;SDS011;43217;52.694;6.214;2023-06-01T09:47:06;3.60;;;2.13;;
57389;SDS011;43217;52.694;6.214;2023-06-01T09:49:40;2.08;;;1.90;;
57389;SDS011;43217;52.694;6.214;2023-06-01T09:54:42;2.20;;;2.00;;
57389;SDS011;43217;52.694;6.214;2023-06-01T09:57:10;2.40;;;1.90;;
57389;SDS011;43217;52.694;6.214;2023-06-01T09:59:40;3.28;;;2.00;;
57389;SDS011;43217;52.694;6.214;2023-06-01T10:02:11;2.67;;;2.30;;
57389;SDS011;43217;52.694;6.214;2023-06-01T10:04:39;3.35;;;2.53;;
57389;SDS011;43217;52.694;6.214;2023-06-01T10:07:05;2.45;;;2.25;;
57389;SDS011;43217;52.694;6.214;2023-06-01T10:09:32;3.00;;;2.70;;
57389;SDS011;43217;52.694;6.214;2023-06-01T10:12:00;3.55;;;2.67;;
57389;SDS011;43217;52.694;6.214;2023-06-01T10:14:27;2.45;;;2.25;;
57389;SDS011;43217;52.694;6.214;2023-06-01T10:16:52;4.38;;;2.78;;
57389;SDS011;43217;52.694;6.214;2023-06-01T10:19:20;4.35;;;2.70;;
57389;SDS011;43217;52.694;6.214;2023-06-01T10:21:46;3.95;;;3.08;;
57389;SDS011;43217;52.694;6.214;2023-06-01T10:24:13;2.70;;;2.50;;
57389;SDS011;43217;52.694;6.214;2023-06-01T10:26:42;3.25;;;2.70;;
57389;SDS011;43217;52.694;6.214;2023-06-01T10:29:30;3.10;;;2.70;;
57389;SDS011;43217;52.694;6.214;2023-06-01T10:31:56;3.28;;;2.60;;
57389;SDS011;43217;52.694;6.214;2023-06-01T10:34:39;4.57;;;2.80;;
57389;SDS011;43217;52.694;6.214;2023-06-01T10:37:12;3.58;;;2.88;;
57389;SDS011;43217;52.694;6.214;2023-06-01T10:39:41;6.22;;;3.10;;
57389;SDS011;43217;52.694;6.214;2023-06-01T10:47:04;7.32;;;3.97;;
57389;SDS011;43217;52.694;6.214;2023-06-01T10:52:27;6.47;;;4.22;;
57389;SDS011;43217;52.694;6.214;2023-06-01T10:54:54;7.63;;;4.43;;
57389;SDS011;43217;52.694;6.214;2023-06-01T10:57:22;8.70;;;4.50;;
57389;SDS011;43217;52.694;6.214;2023-06-01T11:13:26;6.55;;;4.00;;
57389;SDS011;43217;52.694;6.214;2023-06-01T11:18:46;6.93;;;3.90;;
57389;SDS011;43217;52.694;6.214;2023-06-01T11:21:23;11.10;;;4.40;;
57389;SDS011;43217;52.694;6.214;2023-06-01T11:23:54;6.85;;;4.07;;
57389;SDS011;43217;52.694;6.214;2023-06-01T11:26:22;7.70;;;4.05;;
57389;SDS011;43217;52.694;6.214;2023-06-01T11:34:19;7.20;;;4.00;;
57389;SDS011;43217;52.694;6.214;2023-06-01T11:36:51;5.72;;;3.67;;
57389;SDS011;43217;52.694;6.214;2023-06-01T11:39:17;8.95;;;4.25;;
57389;SDS011;43217;52.694;6.214;2023-06-01T11:41:49;9.75;;;3.97;;
57389;SDS011;43217;52.694;6.214;2023-06-01T11:46:54;6.68;;;4.20;;
57389;SDS011;43217;52.694;6.214;2023-06-01T11:49:21;9.25;;;4.38;;
57389;SDS011;43217;52.694;6.214;2023-06-01T11:51:47;11.40;;;4.63;;
57389;SDS011;43217;52.694;6.214;2023-06-01T11:54:13;9.60;;;4.00;;
57389;SDS011;43217;52.694;6.214;2023-06-01T11:56:39;7.55;;;3.63;;
57389;SDS011;43217;52.694;6.214;2023-06-01T11:59:06;8.40;;;4.03;;
57389;SDS011;43217;52.694;6.214;2023-06-01T12:01:34;7.03;;;3.40;;
57389;SDS011;43217;52.694;6.214;2023-06-01T12:04:02;6.35;;;3.55;;
57389;SDS011;43217;52.694;6.214;2023-06-01T12:06:29;7.00;;;3.25;;
57389;SDS011;43217;52.694;6.214;2023-06-01T12:08:56;8.23;;;4.13;;
57389;SDS011;43217;52.694;6.214;2023-06-01T12:11:23;7.57;;;3.55;;
57389;SDS011;43217;52.694;6.214;2023-06-01T12:13:54;8.98;;;3.70;;
57389;SDS011;43217;52.694;6.214;2023-06-01T12:16:20;6.85;;;3.42;;
57389;SDS011;43217;52.694;6.214;2023-06-01T12:18:46;8.18;;;3.85;;
57389;SDS011;43217;52.694;6.214;2023-06-01T12:21:12;6.50;;;3.90;;
57389;SDS011;43217;52.694;6.214;2023-06-01T12:23:38;5.72;;;3.53;;
57389;SDS011;43217;52.694;6.214;2023-06-01T12:26:05;6.63;;;3.80;;
57389;SDS011;43217;52.694;6.214;2023-06-01T12:28:48;6.75;;;3.53;;
57389;SDS011;43217;52.694;6.214;2023-06-01T12:31:16;9.85;;;4.10;;
57389;SDS011;43217;52.694;6.214;2023-06-01T12:33:43;8.40;;;3.57;;
57389;SDS011;43217;52.694;6.214;2023-06-01T12:36:10;9.18;;;3.92;;
57389;SDS011;43217;52.694;6.214;2023-06-01T12:38:49;8.40;;;4.35;;
57389;SDS011;43217;52.694;6.214;2023-06-01T12:41:15;7.45;;;4.10;;
57389;SDS011;43217;52.694;6.214;2023-06-01T12:43:46;10.38;;;4.35;;
57389;SDS011;43217;52.694;6.214;2023-06-01T12:48:54;8.30;;;4.35;;
57389;SDS011;43217;52.694;6.214;2023-06-01T12:51:45;11.00;;;4.60;;
57389;SDS011;43217;52.694;6.214;2023-06-01T12:54:11;6.13;;;4.18;;
57389;SDS011;43217;52.694;6.214;2023-06-01T12:56:37;8.65;;;4.18;;
57389;SDS011;43217;52.694;6.214;2023-06-01T12:59:03;7.38;;;4.38;;
57389;SDS011;43217;52.694;6.214;2023-06-01T13:01:29;8.98;;;4.60;;
57389;SDS011;43217;52.694;6.214;2023-06-01T13:03:55;7.88;;;4.40;;
57389;SDS011;43217;52.694;6.214;2023-06-01T13:06:21;8.10;;;4.30;;
57389;SDS011;43217;52.694;6.214;2023-06-01T13:08:47;9.35;;;4.50;;
57389;SDS011;43217;52.694;6.214;2023-06-01T13:11:13;7.57;;;3.88;;
57389;SDS011;43217;52.694;6.214;2023-06-01T13:13:39;6.00;;;4.10;;
57389;SDS011;43217;52.694;6.214;2023-06-01T13:16:05;5.10;;;3.80;;
57389;SDS011;43217;52.694;6.214;2023-06-01T13:18:32;5.67;;;3.80;;
57389;SDS011;43217;52.694;6.214;2023-06-01T13:20:58;8.32;;;4.00;;
57389;SDS011;43217;52.694;6.214;2023-06-01T13:23:23;6.70;;;3.40;;
57389;SDS011;43217;52.694;6.214;2023-06-01T13:25:49;6.10;;;3.50;;
57389;SDS011;43217;52.694;6.214;2023-06-01T13:28:15;5.60;;;3.67;;
57389;SDS011;43217;52.694;6.214;2023-06-01T13:30:41;6.28;;;3.88;;
57389;SDS011;43217;52.694;6.214;2023-06-01T13:33:07;7.57;;;3.40;;
57389;SDS011;43217;52.694;6.214;2023-06-01T13:35:33;7.60;;;3.50;;
57389;SDS011;43217;52.694;6.214;2023-06-01T13:37:59;6.35;;;3.45;;
57389;SDS011;43217;52.694;6.214;2023-06-01T13:40:25;6.55;;;3.22;;
57389;SDS011;43217;52.694;6.214;2023-06-01T13:42:51;6.32;;;3.60;;
57389;SDS011;43217;52.694;6.214;2023-06-01T13:45:21;6.13;;;3.67;;
57389;SDS011;43217;52.694;6.214;2023-06-01T13:47:46;5.43;;;3.70;;
57389;SDS011;43217;52.694;6.214;2023-06-01T13:50:13;4.32;;;3.45;;
57389;SDS011;43217;52.694;6.214;2023-06-01T13:52:39;7.07;;;4.15;;
57389;SDS011;43217;52.694;6.214;2023-06-01T13:55:06;6.40;;;3.47;;
57389;SDS011;43217;52.694;6.214;2023-06-01T13:57:32;7.15;;;4.03;;
57389;SDS011;43217;52.694;6.214;2023-06-01T13:59:58;4.57;;;3.10;;
57389;SDS011;43217;52.694;6.214;2023-06-01T14:02:24;6.45;;;3.70;;
57389;SDS011;43217;52.694;6.214;2023-06-01T14:04:49;5.15;;;3.28;;
57389;SDS011;43217;52.694;6.214;2023-06-01T14:07:15;5.30;;;3.20;;
57389;SDS011;43217;52.694;6.214;2023-06-01T14:09:41;6.57;;;3.38;;
57389;SDS011;43217;52.694;6.214;2023-06-01T14:12:07;3.78;;;2.75;;
57389;SDS011;43217;52.694;6.214;2023-06-01T14:14:33;4.57;;;3.17;;
57389;SDS011;43217;52.694;6.214;2023-06-01T14:16:58;5.05;;;3.25;;
57389;SDS011;43217;52.694;6.214;2023-06-01T14:19:24;4.20;;;3.50;;
57389;SDS011;43217;52.694;6.214;2023-06-01T14:24:17;7.20;;;3.40;;
57389;SDS011;43217;52.694;6.214;2023-06-01T14:26:43;6.93;;;4.07;;
57389;SDS011;43217;52.694;6.214;2023-06-01T14:29:08;5.15;;;3.30;;
57389;SDS011;43217;52.694;6.214;2023-06-01T14:31:34;6.45;;;4.10;;
57389;SDS011;43217;52.694;6.214;2023-06-01T14:34:00;8.05;;;3.90;;
57389;SDS011;43217;52.694;6.214;2023-06-01T14:36:25;8.13;;;4.07;;
57389;SDS011;43217;52.694;6.214;2023-06-01T14:38:51;6.30;;;3.50;;
57389;SDS011;43217;52.694;6.214;2023-06-01T14:41:17;8.77;;;3.63;;
57389;SDS011;43217;52.694;6.214;2023-06-01T14:43:42;6.18;;;3.50;;
57389;SDS011;43217;52.694;6.214;2023-06-01T14:46:08;7.40;;;3.72;;
57389;SDS011;43217;52.694;6.214;2023-06-01T14:48:33;5.57;;;3.42;;
57389;SDS011;43217;52.694;6.214;2023-06-01T14:50:59;7.55;;;3.85;;
57389;SDS011;43217;52.694;6.214;2023-06-01T14:53:25;8.55;;;3.33;;
57389;SDS011;43217;52.694;6.214;2023-06-01T14:55:50;7.72;;;3.40;;
57389;SDS011;43217;52.694;6.214;2023-06-01T14:58:16;7.07;;;3.88;;
57389;SDS011;43217;52.694;6.214;2023-06-01T15:00:41;6.85;;;4.10;;
57389;SDS011;43217;52.694;6.214;2023-06-01T15:03:07;5.15;;;3.60;;
57389;SDS011;43217;52.694;6.214;2023-06-01T15:05:33;6.93;;;3.70;;
57389;SDS011;43217;52.694;6.214;2023-06-01T15:07:59;8.55;;;4.18;;
57389;SDS011;43217;52.694;6.214;2023-06-01T15:10:25;9.35;;;4.00;;
57389;SDS011;43217;52.694;6.214;2023-06-01T15:12:50;5.60;;;3.72;;
57389;SDS011;43217;52.694;6.214;2023-06-01T15:15:16;8.27;;;3.63;;
57389;SDS011;43217;52.694;6.214;2023-06-01T15:17:42;7.22;;;4.00;;
57389;SDS011;43217;52.694;6.214;2023-06-01T15:20:08;7.60;;;4.00;;
57389;SDS011;43217;52.694;6.214;2023-06-01T15:22:34;5.78;;;3.55;;
57389;SDS011;43217;52.694;6.214;2023-06-01T15:25:00;5.07;;;3.08;;
57389;SDS011;43217;52.694;6.214;2023-06-01T15:27:26;6.95;;;3.50;;
57389;SDS011;43217;52.694;6.214;2023-06-01T15:29:51;5.43;;;2.75;;
57389;SDS011;43217;52.694;6.214;2023-06-01T15:32:17;7.35;;;3.25;;
57389;SDS011;43217;52.694;6.214;2023-06-01T15:34:42;5.55;;;3.03;;